createdAt,value
2018-04-07T00:02:25.479Z,9.00
2018-04-07T00:04:53.729Z,8.68
2018-04-07T00:07:21.195Z,9.10
2018-04-07T00:09:48.718Z,8.98
2018-04-07T00:12:16.191Z,9.55
2018-04-07T00:14:43.707Z,9.02
2018-04-07T00:17:11.187Z,8.65
2018-04-07T00:19:38.672Z,7.75
2018-04-07T00:22:06.171Z,8.73
2018-04-07T00:24:34.441Z,8.50
2018-04-07T00:27:02.706Z,8.40
2018-04-07T00:29:30.199Z,8.50
2018-04-07T00:31:57.687Z,7.45
2018-04-07T00:34:25.198Z,8.52
2018-04-07T00:36:52.698Z,7.47
2018-04-07T00:39:20.163Z,8.77
2018-04-07T00:41:47.667Z,9.43
2018-04-07T00:44:15.935Z,9.13
2018-04-07T00:46:43.403Z,8.63
2018-04-07T00:49:11.666Z,8.88
2018-04-07T00:51:39.147Z,8.30
2018-04-07T00:54:07.423Z,9.02
2018-04-07T00:56:35.651Z,7.85
2018-04-07T00:59:03.187Z,8.32
2018-04-07T01:01:30.650Z,8.02
2018-04-07T01:03:58.182Z,8.38
2018-04-07T01:06:26.424Z,7.72
2018-04-07T01:08:53.907Z,7.25
2018-04-07T01:11:22.166Z,8.73
2018-04-07T01:13:49.650Z,7.65
2018-04-07T01:16:17.907Z,7.57
2018-04-07T01:18:45.386Z,8.88
2018-04-07T01:21:13.643Z,8.95
2018-04-07T01:23:41.120Z,8.35
2018-04-07T01:26:09.404Z,7.62
2018-04-07T01:28:37.649Z,7.70
2018-04-07T01:31:05.143Z,7.70
2018-04-07T01:33:32.616Z,7.87
2018-04-07T01:36:00.164Z,7.80
2018-04-07T01:38:27.637Z,7.47
2018-04-07T01:40:55.119Z,7.90
2018-04-07T01:43:22.652Z,7.40
2018-04-07T01:45:50.853Z,7.32
2018-04-07T01:48:18.367Z,8.18
2018-04-07T01:50:45.844Z,7.40
2018-04-07T01:53:13.345Z,8.75
2018-04-07T01:55:40.793Z,7.12
2018-04-07T01:58:08.286Z,8.23
2018-04-07T02:00:36.518Z,7.68
2018-04-07T02:03:04.015Z,8.38
2018-04-07T02:05:31.482Z,8.40
2018-04-07T02:07:59.716Z,7.50
2018-04-07T02:10:27.219Z,7.25
2018-04-07T02:12:55.450Z,7.47
2018-04-07T02:15:22.978Z,7.78
2018-04-07T02:17:50.443Z,7.72
2018-04-07T02:20:17.934Z,7.35
2018-04-07T02:22:45.420Z,7.70
2018-04-07T02:25:13.688Z,7.30
2018-04-07T02:27:41.161Z,7.70
2018-04-07T02:30:09.438Z,7.62
2018-04-07T02:32:37.668Z,7.55
2018-04-07T02:35:05.124Z,7.97
2018-04-07T02:37:32.607Z,7.95
2018-04-07T02:40:00.088Z,7.60
2018-04-07T02:42:27.573Z,7.78
2018-04-07T02:44:55.055Z,7.55
2018-04-07T02:47:22.584Z,9.07
2018-04-07T02:49:50.036Z,8.02
2018-04-07T02:52:17.536Z,8.27
2018-04-07T02:54:45.006Z,8.52
2018-04-07T02:57:12.493Z,8.35
2018-04-07T02:59:39.990Z,8.05
2018-04-07T03:02:07.461Z,7.47
2018-04-07T03:04:34.955Z,8.32
2018-04-07T03:07:02.419Z,8.68
2018-04-07T03:09:31.416Z,7.72
2018-04-07T03:11:58.895Z,8.35
2018-04-07T03:14:27.158Z,8.43
2018-04-07T03:16:55.408Z,7.68
2018-04-07T03:19:22.900Z,7.53
2018-04-07T03:21:51.168Z,8.35
2018-04-07T03:24:18.669Z,6.80
2018-04-07T03:26:46.173Z,8.32
2018-04-07T03:29:13.646Z,7.10
2018-04-07T03:31:41.918Z,8.75
2018-04-07T03:34:09.397Z,7.53
2018-04-07T03:36:37.657Z,7.95
2018-04-07T03:39:05.142Z,8.38
2018-04-07T03:41:32.645Z,8.88
2018-04-07T03:44:00.102Z,7.85
2018-04-07T03:46:27.595Z,7.95
2018-04-07T03:48:55.821Z,8.07
2018-04-07T03:51:23.299Z,8.30
2018-04-07T03:53:50.779Z,8.43
2018-04-07T03:56:18.271Z,8.13
2018-04-07T03:58:45.765Z,7.70
2018-04-07T04:01:13.230Z,7.50
2018-04-07T04:03:40.713Z,7.37
2018-04-07T04:06:08.177Z,7.68
2018-04-07T04:08:35.700Z,8.85
2018-04-07T04:11:03.166Z,7.12
2018-04-07T04:13:30.657Z,7.30
2018-04-07T04:15:58.917Z,7.47
2018-04-07T04:18:26.438Z,7.90
2018-04-07T04:20:53.930Z,7.65
2018-04-07T04:23:21.451Z,7.47
2018-04-07T04:25:48.919Z,8.45
2018-04-07T04:28:16.379Z,8.70
2018-04-07T04:30:43.869Z,7.47
2018-04-07T04:33:12.129Z,8.60
2018-04-07T04:35:39.618Z,7.95
2018-04-07T04:38:07.854Z,7.70
2018-04-07T04:40:35.355Z,7.82
2018-04-07T04:43:03.579Z,8.10
2018-04-07T04:45:31.066Z,8.55
2018-04-07T04:47:58.558Z,9.23
2018-04-07T04:50:26.827Z,7.37
2018-04-07T04:52:55.082Z,8.57
2018-04-07T04:55:22.552Z,8.40
2018-04-07T04:57:50.052Z,8.93
2018-04-07T05:00:17.546Z,8.00
2018-04-07T05:02:45.045Z,9.45
2018-04-07T05:05:13.287Z,8.35
2018-04-07T05:07:40.788Z,8.02
2018-04-07T05:10:09.038Z,9.40
2018-04-07T05:12:37.287Z,7.87
2018-04-07T05:15:04.792Z,8.43
2018-04-07T05:17:33.034Z,8.88
2018-04-07T05:20:00.578Z,8.95
2018-04-07T05:22:28.062Z,8.20
2018-04-07T05:24:55.548Z,8.30
2018-04-07T05:27:23.811Z,8.80
2018-04-07T05:29:52.088Z,10.05
2018-04-07T05:32:20.338Z,10.05
2018-04-07T05:34:47.822Z,10.75
2018-04-07T05:37:16.098Z,9.30
2018-04-07T05:39:44.326Z,9.75
2018-04-07T05:42:11.830Z,10.00
2018-04-07T05:44:39.307Z,8.98
2018-04-07T05:47:07.567Z,10.27
2018-04-07T05:49:35.036Z,9.13
2018-04-07T05:52:03.294Z,10.00
2018-04-07T05:54:30.818Z,9.80
2018-04-07T05:56:58.300Z,9.50
2018-04-07T05:59:25.760Z,9.57
2018-04-07T06:01:53.241Z,11.60
2018-04-07T06:04:21.491Z,10.15
2018-04-07T06:06:48.998Z,9.25
2018-04-07T06:09:16.459Z,10.90
2018-04-07T06:11:43.974Z,10.77
2018-04-07T06:14:11.470Z,10.73
2018-04-07T06:16:39.050Z,11.35
2018-04-07T06:19:06.510Z,9.82
2018-04-07T06:21:34.030Z,11.43
2018-04-07T06:24:02.269Z,11.27
2018-04-07T06:26:29.731Z,11.18
2018-04-07T06:28:57.229Z,11.02
2018-04-07T06:31:25.496Z,10.52
2018-04-07T06:33:53.865Z,10.30
2018-04-07T06:36:21.338Z,10.65
2018-04-07T06:38:49.590Z,11.38
2018-04-07T06:41:17.063Z,11.90
2018-04-07T06:43:45.339Z,10.50
2018-04-07T06:46:12.848Z,10.48
2018-04-07T06:48:40.334Z,10.88
2018-04-07T06:51:07.825Z,11.20
2018-04-07T06:53:36.103Z,11.40
2018-04-07T06:56:04.353Z,13.02
2018-04-07T06:58:31.838Z,12.20
2018-04-07T07:01:00.115Z,11.80
2018-04-07T07:03:28.374Z,11.63
2018-04-07T07:05:55.880Z,12.13
2018-04-07T07:08:23.343Z,11.98
2018-04-07T07:10:50.859Z,11.88
2018-04-07T07:13:19.090Z,11.80
2018-04-07T07:15:46.586Z,12.13
2018-04-07T07:18:14.048Z,11.15
2018-04-07T07:20:41.538Z,11.98
2018-04-07T07:23:09.018Z,12.23
2018-04-07T07:25:36.531Z,12.05
2018-04-07T07:28:03.990Z,11.60
2018-04-07T07:30:32.260Z,12.77
2018-04-07T07:32:59.730Z,12.80
2018-04-07T07:35:28.034Z,11.68
2018-04-07T07:37:55.569Z,12.55
2018-04-07T07:40:23.842Z,11.05
2018-04-07T07:42:52.133Z,11.60
2018-04-07T07:45:20.390Z,12.07
2018-04-07T07:47:48.637Z,12.20
2018-04-07T07:50:16.268Z,11.95
2018-04-07T07:52:43.738Z,10.75
2018-04-07T07:55:11.253Z,12.75
2018-04-07T07:57:39.499Z,11.55
2018-04-07T08:00:07.022Z,11.57
2018-04-07T08:02:34.503Z,12.20
2018-04-07T08:05:02.014Z,12.07
2018-04-07T08:07:29.536Z,11.43
2018-04-07T08:09:57.010Z,11.88
2018-04-07T08:12:24.538Z,13.40
2018-04-07T08:14:52.030Z,12.65
2018-04-07T08:17:19.539Z,12.68
2018-04-07T08:19:47.012Z,11.52
2018-04-07T08:22:14.512Z,11.57
2018-04-07T08:24:42.761Z,10.80
2018-04-07T08:27:10.266Z,11.03
2018-04-07T08:29:37.745Z,11.63
2018-04-07T08:32:05.331Z,11.33
2018-04-07T08:34:33.538Z,11.27
2018-04-07T08:37:01.062Z,11.67
2018-04-07T08:39:28.611Z,10.23
2018-04-07T08:41:56.097Z,11.27
2018-04-07T08:44:23.599Z,11.50
2018-04-07T08:46:51.835Z,10.87
2018-04-07T08:49:19.358Z,11.23
2018-04-07T08:51:46.836Z,11.30
2018-04-07T08:54:14.326Z,10.53
2018-04-07T08:56:41.830Z,10.73
2018-04-07T08:59:09.322Z,10.17
2018-04-07T09:01:36.845Z,10.90
2018-04-07T09:04:04.344Z,11.50
2018-04-07T09:06:31.869Z,10.60
2018-04-07T09:08:59.377Z,10.70
2018-04-07T09:11:26.848Z,9.93
2018-04-07T09:13:55.107Z,10.73
2018-04-07T09:16:22.597Z,10.90
2018-04-07T09:18:50.093Z,10.57
2018-04-07T09:21:17.586Z,9.73
2018-04-07T09:23:45.086Z,10.47
2018-04-07T09:26:12.609Z,10.70
2018-04-07T09:28:40.156Z,11.63
2018-04-07T09:31:13.415Z,10.50
2018-04-07T09:33:40.917Z,11.10
2018-04-07T09:36:09.151Z,9.37
2018-04-07T09:38:36.675Z,10.03
2018-04-07T09:41:04.916Z,10.80
2018-04-07T09:43:32.428Z,9.93
2018-04-07T09:45:59.910Z,9.27
2018-04-07T09:48:27.398Z,9.17
2018-04-07T09:50:54.882Z,10.23
2018-04-07T09:53:23.135Z,9.10
2018-04-07T09:55:50.602Z,8.67
2018-04-07T09:58:18.846Z,9.40
2018-04-07T10:00:47.307Z,9.83
2018-04-07T10:03:20.464Z,10.23
2018-04-07T10:05:48.787Z,8.97
2018-04-07T10:08:16.283Z,10.13
2018-04-07T10:10:43.794Z,9.33
2018-04-07T10:13:11.279Z,8.67
2018-04-07T10:15:38.789Z,8.57
2018-04-07T10:18:06.313Z,9.53
2018-04-07T10:20:33.806Z,8.10
2018-04-07T10:23:02.034Z,9.40
2018-04-07T10:25:29.516Z,8.70
2018-04-07T10:27:57.002Z,8.27
2018-04-07T10:30:25.240Z,9.93
2018-04-07T10:32:52.736Z,9.10
2018-04-07T10:35:20.238Z,9.13
2018-04-07T10:37:47.746Z,10.37
2018-04-07T10:40:15.987Z,11.07
2018-04-07T10:42:43.479Z,9.97
2018-04-07T10:45:11.734Z,10.20
2018-04-07T10:47:39.238Z,10.10
2018-04-07T10:50:06.733Z,9.93
2018-04-07T10:52:34.225Z,8.60
2018-04-07T10:55:01.727Z,8.53
2018-04-07T10:57:29.231Z,8.37
2018-04-07T10:59:56.759Z,8.50
2018-04-07T11:02:24.218Z,10.00
2018-04-07T11:04:51.727Z,9.50
2018-04-07T11:07:19.996Z,9.70
2018-04-07T11:09:47.504Z,9.70
2018-04-07T11:12:14.973Z,9.40
2018-04-07T11:14:42.472Z,9.73
2018-04-07T11:17:09.930Z,9.07
2018-04-07T11:19:37.474Z,11.03
2018-04-07T11:22:04.958Z,9.53
2018-04-07T11:24:33.232Z,9.70
2018-04-07T11:27:01.491Z,10.70
2018-04-07T11:29:28.966Z,9.37
2018-04-07T11:31:57.223Z,10.63
2018-04-07T11:34:24.705Z,10.03
2018-04-07T11:36:52.979Z,10.17
2018-04-07T11:39:21.244Z,8.80
2018-04-07T11:41:48.750Z,8.30
2018-04-07T11:44:16.246Z,10.67
2018-04-07T11:46:43.763Z,10.53
2018-04-07T11:49:11.257Z,9.87
2018-04-07T11:51:39.530Z,9.53
2018-04-07T11:54:07.037Z,10.40
2018-04-07T11:56:34.504Z,9.77
